x

La Mancha Beach, Mexico (lmbv4) Weather Station

2:00am - Wed 17th Sep 2014 All times are CDT. -5 hours from GMT.

  • Wind
    2mph, 3mph gusts
  • Air Temp 76°f
  • Sea Pressure 1013.3mb
  • La Mancha Beach, Mexico
  • La Mancha Beach, Mexico

More Historic Weather Station data

Upgrade to MSW Pro to gain access to the past 30 days of data for over 8000 Wavebouys and Weather Stations around the globe.

Join Pro

Comparision Forecast

View Surf forecast
   
Wed 09/17 2:00am 2 3 mph 1013.3mb 76f
1:00am 2 3 mph 1014.4mb 76f
12:00am 2 3 mph 1014.9mb 77f
Tue 09/16 11:00pm 3
mph
1014.9mb 76f
10:00pm 3
mph
1014.6mb 75f
9:00pm 2 3 mph 1013.9mb 75f
8:00pm 3 5 mph 1013.3mb 77f
7:00pm 2
mph
1012.9mb 77f
6:00pm 2 3 mph 1012.7mb 78f
5:00pm 5 7 mph 1012.7mb 78f
4:00pm 8 11 mph 1013mb 79f
3:00pm 7 11 mph 1013.6mb 81f
2:00pm 2
mph
1014.3mb 80f
1:00pm 3 6 mph 1015.4mb 80f
12:00pm 2 3 mph 1016mb 79f
11:00am 5 8 mph 1015.9mb 79f
10:00am 3 5 mph 1016mb 76f
9:00am 5 6 mph 1015.6mb 74f
8:00am 3 5 mph 1015.7mb 74f
7:00am 5 8 mph 1015.7mb 74f
6:00am 3 8 mph 1015.6mb 75f
5:00am  -  1 mph 1014.3mb 75f
4:00am 5 7 mph 1014.4mb 75f
3:00am 8 9 mph 1014.8mb 75f
2:00am 5 7 mph 1015.4mb 75f
1:00am 3 5 mph 1016mb 76f
12:00am 2 3 mph 1016.6mb 77f
Mon 09/15 11:00pm 5 7 mph 1016.2mb 80f
10:00pm 5 7 mph 1015.9mb 80f
9:00pm 5 7 mph 1015.3mb 81f
8:00pm 9 13 mph 1014.4mb 82f
7:00pm 9 14 mph 1013.9mb 82f
6:00pm 8 11 mph 1013.6mb 83f
5:00pm 11 15 mph 1012.8mb 83f
4:00pm 11 17 mph 1013.8mb 83f
3:00pm 10 14 mph 1014.7mb 83f
2:00pm 10 16 mph 1015mb 84f
1:00pm 8 11 mph 1015.6mb 84f
12:00pm 7 10 mph 1016.7mb 82f
11:00am 2 3 mph 1017.3mb 81f
10:00am  -  1 mph 1017mb 83f
9:00am 2
mph
1016.7mb 76f
8:00am 1 2 mph 1015.8mb 75f
7:00am 5 6 mph 1015.1mb 72f
6:00am 2
mph
1014.6mb 73f
5:00am 2 3 mph 1014.5mb 75f
4:00am 5 7 mph 1014.9mb 74f
3:00am 3 6 mph 1015.7mb 73f
2:00am 20 22 mph 1016.3mb 75f
1:00am 2 3 mph 1016.1mb 76f
12:00am 3 7 mph 1016.3mb 77f
Sun 09/14 11:00pm 1 2 mph 1016.3mb 78f
10:00pm 6
mph
1015.5mb 78f
9:00pm 8 9 mph 1015.1mb 81f
8:00pm 8 13 mph 1014mb 81f
7:00pm 10 14 mph 1013.5mb 82f
6:00pm 10 15 mph 1013.2mb 83f
5:00pm 10 15 mph 1013.1mb 83f
4:00pm 5 8 mph 1013.4mb 83f
3:00pm 2
mph
1014mb 82f
2:00pm 2 3 mph 1014.5mb 82f
1:00pm 3 5 mph 1015.1mb 79f
12:00pm 3 5 mph 1015.8mb 76f
11:00am 3
mph
1016.7mb 75f
10:00am 5 6 mph 1016.4mb 74f
9:00am 5 7 mph 1016.1mb 73f
8:00am 1 2 mph 1015.3mb 74f
7:00am 3
mph
1013.8mb 76f
6:00am 5
mph
1012.7mb 76f
5:00am 5 6 mph 1012.4mb 75f
4:00am 5
mph
1012.1mb 75f
3:00am 3 5 mph 1012.4mb 75f
2:00am 3 5 mph 1013mb 76f
1:00am 2 3 mph 1013.3mb 76f
12:00am 3 5 mph 1013.6mb 76f
Sat 09/13 11:00pm 2 3 mph 1013.6mb 77f
10:00pm 3
mph
1012.9mb 77f
9:00pm 3
mph
1012.3mb 77f
8:00pm  -  1 mph 1011.3mb 79f
7:00pm  -  1 mph 1010.5mb 80f
6:00pm 5 6 mph 1010mb 81f
5:00pm 5 7 mph 1010mb 81f
4:00pm 6 7 mph 1010.5mb 80f
3:00pm 10 13 mph 1010.9mb 81f
2:00pm 11 15 mph 1011.7mb 81f
1:00pm 10 13 mph 1011.7mb 83f
12:00pm 3 6 mph 1012.3mb 84f
11:00am 2 5 mph 1012.6mb 83f
10:00am 1 2 mph 1012.4mb 81f
9:00am 3 5 mph 1011.8mb 76f